sensor_id;sensor_type;location;lat;lon;timestamp;P1;durP1;ratioP1;P2;durP2;ratioP2
44222;SDS011;29895;48.804;9.386;2023-07-28T00:01:25;10.32;;;4.07;;
44222;SDS011;29895;48.804;9.386;2023-07-28T00:03:51;5.07;;;3.65;;
44222;SDS011;29895;48.804;9.386;2023-07-28T00:06:17;7.40;;;3.80;;
44222;SDS011;29895;48.804;9.386;2023-07-28T00:08:42;5.97;;;3.70;;
44222;SDS011;29895;48.804;9.386;2023-07-28T00:11:09;6.10;;;3.92;;
44222;SDS011;29895;48.804;9.386;2023-07-28T00:13:39;9.25;;;4.30;;
44222;SDS011;29895;48.804;9.386;2023-07-28T00:16:05;5.20;;;3.65;;
44222;SDS011;29895;48.804;9.386;2023-07-28T00:18:31;7.85;;;4.03;;
44222;SDS011;29895;48.804;9.386;2023-07-28T00:20:57;5.20;;;3.78;;
44222;SDS011;29895;48.804;9.386;2023-07-28T00:23:23;7.93;;;4.00;;
44222;SDS011;29895;48.804;9.386;2023-07-28T00:25:49;5.47;;;3.40;;
44222;SDS011;29895;48.804;9.386;2023-07-28T00:28:15;5.78;;;3.80;;
44222;SDS011;29895;48.804;9.386;2023-07-28T00:30:41;6.28;;;3.65;;
44222;SDS011;29895;48.804;9.386;2023-07-28T00:33:07;9.18;;;4.03;;
44222;SDS011;29895;48.804;9.386;2023-07-28T00:35:32;5.43;;;3.63;;
44222;SDS011;29895;48.804;9.386;2023-07-28T00:37:58;6.82;;;3.97;;
44222;SDS011;29895;48.804;9.386;2023-07-28T00:40:24;8.23;;;4.00;;
44222;SDS011;29895;48.804;9.386;2023-07-28T00:42:49;5.72;;;4.05;;
44222;SDS011;29895;48.804;9.386;2023-07-28T00:45:15;6.47;;;3.65;;
44222;SDS011;29895;48.804;9.386;2023-07-28T00:47:41;9.63;;;3.72;;
44222;SDS011;29895;48.804;9.386;2023-07-28T00:50:10;10.20;;;4.35;;
44222;SDS011;29895;48.804;9.386;2023-07-28T00:52:36;6.07;;;4.40;;
44222;SDS011;29895;48.804;9.386;2023-07-28T00:55:02;6.40;;;4.30;;
44222;SDS011;29895;48.804;9.386;2023-07-28T00:57:28;6.65;;;3.88;;
44222;SDS011;29895;48.804;9.386;2023-07-28T00:59:54;6.43;;;4.40;;
44222;SDS011;29895;48.804;9.386;2023-07-28T01:02:20;7.30;;;3.95;;
44222;SDS011;29895;48.804;9.386;2023-07-28T01:04:46;7.28;;;3.97;;
44222;SDS011;29895;48.804;9.386;2023-07-28T01:07:17;7.13;;;4.25;;
44222;SDS011;29895;48.804;9.386;2023-07-28T01:10:01;7.10;;;4.30;;
44222;SDS011;29895;48.804;9.386;2023-07-28T01:12:30;6.25;;;5.03;;
44222;SDS011;29895;48.804;9.386;2023-07-28T01:14:56;7.75;;;4.28;;
44222;SDS011;29895;48.804;9.386;2023-07-28T01:17:22;5.88;;;4.18;;
44222;SDS011;29895;48.804;9.386;2023-07-28T01:19:51;6.13;;;4.05;;
44222;SDS011;29895;48.804;9.386;2023-07-28T01:25:06;10.20;;;4.65;;
44222;SDS011;29895;48.804;9.386;2023-07-28T01:27:53;6.47;;;4.50;;
44222;SDS011;29895;48.804;9.386;2023-07-28T01:30:20;8.30;;;4.47;;
44222;SDS011;29895;48.804;9.386;2023-07-28T01:32:50;8.40;;;4.15;;
44222;SDS011;29895;48.804;9.386;2023-07-28T01:35:16;5.78;;;4.25;;
44222;SDS011;29895;48.804;9.386;2023-07-28T01:37:41;6.50;;;4.40;;
44222;SDS011;29895;48.804;9.386;2023-07-28T01:40:07;8.50;;;4.38;;
44222;SDS011;29895;48.804;9.386;2023-07-28T01:42:33;9.10;;;4.15;;
44222;SDS011;29895;48.804;9.386;2023-07-28T01:44:59;7.47;;;4.25;;
44222;SDS011;29895;48.804;9.386;2023-07-28T01:47:24;10.38;;;4.72;;
44222;SDS011;29895;48.804;9.386;2023-07-28T01:49:50;5.40;;;3.80;;
44222;SDS011;29895;48.804;9.386;2023-07-28T01:52:16;7.20;;;3.67;;
44222;SDS011;29895;48.804;9.386;2023-07-28T01:54:41;6.97;;;3.70;;
44222;SDS011;29895;48.804;9.386;2023-07-28T01:57:07;6.35;;;3.80;;
44222;SDS011;29895;48.804;9.386;2023-07-28T01:59:33;8.27;;;4.07;;
44222;SDS011;29895;48.804;9.386;2023-07-28T02:01:58;8.32;;;4.30;;
44222;SDS011;29895;48.804;9.386;2023-07-28T02:04:24;4.78;;;3.70;;
44222;SDS011;29895;48.804;9.386;2023-07-28T02:06:50;6.20;;;4.20;;
44222;SDS011;29895;48.804;9.386;2023-07-28T02:09:15;8.50;;;3.95;;
44222;SDS011;29895;48.804;9.386;2023-07-28T02:11:42;5.78;;;3.75;;
44222;SDS011;29895;48.804;9.386;2023-07-28T02:14:07;8.65;;;4.47;;
44222;SDS011;29895;48.804;9.386;2023-07-28T02:16:33;5.53;;;4.55;;
44222;SDS011;29895;48.804;9.386;2023-07-28T02:18:59;7.18;;;3.92;;
44222;SDS011;29895;48.804;9.386;2023-07-28T02:21:24;6.93;;;4.45;;
44222;SDS011;29895;48.804;9.386;2023-07-28T02:23:50;5.07;;;4.10;;
44222;SDS011;29895;48.804;9.386;2023-07-28T02:26:16;7.30;;;3.95;;
44222;SDS011;29895;48.804;9.386;2023-07-28T02:28:41;5.38;;;3.88;;
44222;SDS011;29895;48.804;9.386;2023-07-28T02:31:07;8.68;;;3.97;;
44222;SDS011;29895;48.804;9.386;2023-07-28T02:33:32;7.20;;;4.05;;
44222;SDS011;29895;48.804;9.386;2023-07-28T02:36:01;5.78;;;4.47;;
44222;SDS011;29895;48.804;9.386;2023-07-28T02:38:28;5.30;;;3.92;;
44222;SDS011;29895;48.804;9.386;2023-07-28T02:40:54;8.30;;;3.78;;
44222;SDS011;29895;48.804;9.386;2023-07-28T02:43:19;6.20;;;4.10;;
44222;SDS011;29895;48.804;9.386;2023-07-28T02:45:48;8.60;;;4.47;;
44222;SDS011;29895;48.804;9.386;2023-07-28T02:48:21;5.13;;;3.83;;
44222;SDS011;29895;48.804;9.386;2023-07-28T02:50:48;7.97;;;3.50;;
44222;SDS011;29895;48.804;9.386;2023-07-28T02:53:17;5.32;;;3.75;;
44222;SDS011;29895;48.804;9.386;2023-07-28T02:55:43;5.82;;;3.83;;
44222;SDS011;29895;48.804;9.386;2023-07-28T02:58:09;4.68;;;3.65;;
44222;SDS011;29895;48.804;9.386;2023-07-28T03:00:39;7.07;;;3.63;;
44222;SDS011;29895;48.804;9.386;2023-07-28T03:03:10;5.72;;;3.97;;
44222;SDS011;29895;48.804;9.386;2023-07-28T03:05:36;7.15;;;4.05;;
44222;SDS011;29895;48.804;9.386;2023-07-28T03:08:03;7.35;;;4.05;;
44222;SDS011;29895;48.804;9.386;2023-07-28T03:10:29;6.60;;;3.67;;
44222;SDS011;29895;48.804;9.386;2023-07-28T03:12:55;6.07;;;3.67;;
44222;SDS011;29895;48.804;9.386;2023-07-28T03:15:21;5.25;;;4.28;;
44222;SDS011;29895;48.804;9.386;2023-07-28T03:17:47;6.57;;;3.70;;
44222;SDS011;29895;48.804;9.386;2023-07-28T03:20:13;5.63;;;3.65;;
44222;SDS011;29895;48.804;9.386;2023-07-28T03:22:39;7.97;;;4.45;;
44222;SDS011;29895;48.804;9.386;2023-07-28T03:25:05;6.70;;;4.15;;
44222;SDS011;29895;48.804;9.386;2023-07-28T03:27:30;7.03;;;4.28;;
44222;SDS011;29895;48.804;9.386;2023-07-28T03:29:56;7.40;;;4.35;;
44222;SDS011;29895;48.804;9.386;2023-07-28T03:32:22;6.28;;;3.80;;
44222;SDS011;29895;48.804;9.386;2023-07-28T03:34:48;7.93;;;4.20;;
44222;SDS011;29895;48.804;9.386;2023-07-28T03:37:13;7.15;;;3.80;;
44222;SDS011;29895;48.804;9.386;2023-07-28T03:39:39;9.52;;;3.80;;
44222;SDS011;29895;48.804;9.386;2023-07-28T03:42:05;6.05;;;3.55;;
44222;SDS011;29895;48.804;9.386;2023-07-28T03:44:31;7.55;;;4.03;;
44222;SDS011;29895;48.804;9.386;2023-07-28T03:46:57;5.32;;;3.70;;
44222;SDS011;29895;48.804;9.386;2023-07-28T03:49:22;5.18;;;3.53;;
44222;SDS011;29895;48.804;9.386;2023-07-28T03:51:48;5.18;;;3.63;;
44222;SDS011;29895;48.804;9.386;2023-07-28T03:54:14;6.15;;;3.70;;
44222;SDS011;29895;48.804;9.386;2023-07-28T03:56:39;7.65;;;4.35;;
44222;SDS011;29895;48.804;9.386;2023-07-28T03:59:05;8.32;;;4.25;;
44222;SDS011;29895;48.804;9.386;2023-07-28T04:01:31;7.10;;;3.78;;
44222;SDS011;29895;48.804;9.386;2023-07-28T04:03:57;7.20;;;4.22;;
44222;SDS011;29895;48.804;9.386;2023-07-28T04:06:45;6.15;;;3.67;;
44222;SDS011;29895;48.804;9.386;2023-07-28T04:09:14;7.93;;;4.13;;
44222;SDS011;29895;48.804;9.386;2023-07-28T04:11:40;6.88;;;4.18;;
44222;SDS011;29895;48.804;9.386;2023-07-28T04:14:06;8.40;;;4.25;;
44222;SDS011;29895;48.804;9.386;2023-07-28T04:16:32;6.57;;;4.03;;
44222;SDS011;29895;48.804;9.386;2023-07-28T04:18:58;5.15;;;3.38;;
44222;SDS011;29895;48.804;9.386;2023-07-28T04:21:24;6.75;;;3.85;;
44222;SDS011;29895;48.804;9.386;2023-07-28T04:23:50;6.35;;;3.50;;
44222;SDS011;29895;48.804;9.386;2023-07-28T04:26:16;8.68;;;3.53;;
44222;SDS011;29895;48.804;9.386;2023-07-28T04:28:43;7.72;;;4.10;;
44222;SDS011;29895;48.804;9.386;2023-07-28T04:31:09;7.32;;;3.80;;
44222;SDS011;29895;48.804;9.386;2023-07-28T04:33:35;5.63;;;3.63;;
44222;SDS011;29895;48.804;9.386;2023-07-28T04:36:02;9.55;;;4.50;;
44222;SDS011;29895;48.804;9.386;2023-07-28T04:38:28;9.00;;;4.68;;
44222;SDS011;29895;48.804;9.386;2023-07-28T04:40:54;8.27;;;3.88;;
44222;SDS011;29895;48.804;9.386;2023-07-28T04:43:19;8.73;;;3.90;;
44222;SDS011;29895;48.804;9.386;2023-07-28T04:45:45;9.88;;;4.28;;
44222;SDS011;29895;48.804;9.386;2023-07-28T04:48:11;7.22;;;3.47;;
44222;SDS011;29895;48.804;9.386;2023-07-28T04:50:36;6.65;;;3.60;;
44222;SDS011;29895;48.804;9.386;2023-07-28T04:53:02;8.80;;;3.95;;
44222;SDS011;29895;48.804;9.386;2023-07-28T04:55:28;8.02;;;4.15;;
44222;SDS011;29895;48.804;9.386;2023-07-28T04:57:55;8.27;;;4.38;;
44222;SDS011;29895;48.804;9.386;2023-07-28T05:00:20;7.88;;;4.18;;
44222;SDS011;29895;48.804;9.386;2023-07-28T05:02:46;7.38;;;3.60;;
44222;SDS011;29895;48.804;9.386;2023-07-28T05:05:12;7.53;;;4.50;;
44222;SDS011;29895;48.804;9.386;2023-07-28T05:07:38;7.97;;;4.30;;
44222;SDS011;29895;48.804;9.386;2023-07-28T05:10:03;6.28;;;4.00;;
44222;SDS011;29895;48.804;9.386;2023-07-28T05:12:29;9.02;;;4.47;;
44222;SDS011;29895;48.804;9.386;2023-07-28T05:14:55;6.28;;;4.45;;
44222;SDS011;29895;48.804;9.386;2023-07-28T05:17:21;7.32;;;4.70;;
44222;SDS011;29895;48.804;9.386;2023-07-28T05:19:47;10.50;;;5.40;;
44222;SDS011;29895;48.804;9.386;2023-07-28T05:22:14;8.65;;;5.10;;
44222;SDS011;29895;48.804;9.386;2023-07-28T05:24:40;7.28;;;5.07;;
44222;SDS011;29895;48.804;9.386;2023-07-28T05:27:06;9.10;;;4.80;;
44222;SDS011;29895;48.804;9.386;2023-07-28T05:29:31;9.00;;;4.55;;
44222;SDS011;29895;48.804;9.386;2023-07-28T05:32:00;7.68;;;4.82;;
44222;SDS011;29895;48.804;9.386;2023-07-28T05:34:26;9.05;;;4.50;;
44222;SDS011;29895;48.804;9.386;2023-07-28T05:36:51;10.68;;;4.82;;
44222;SDS011;29895;48.804;9.386;2023-07-28T05:39:17;12.93;;;5.47;;
44222;SDS011;29895;48.804;9.386;2023-07-28T05:41:43;9.00;;;5.43;;
44222;SDS011;29895;48.804;9.386;2023-07-28T05:44:08;7.53;;;5.43;;
44222;SDS011;29895;48.804;9.386;2023-07-28T05:46:34;12.02;;;6.00;;
44222;SDS011;29895;48.804;9.386;2023-07-28T05:49:00;8.23;;;5.72;;
44222;SDS011;29895;48.804;9.386;2023-07-28T05:51:25;16.05;;;6.20;;
44222;SDS011;29895;48.804;9.386;2023-07-28T05:53:51;14.95;;;5.93;;
44222;SDS011;29895;48.804;9.386;2023-07-28T05:56:17;12.98;;;5.60;;
44222;SDS011;29895;48.804;9.386;2023-07-28T05:58:46;9.75;;;5.05;;
44222;SDS011;29895;48.804;9.386;2023-07-28T06:01:12;7.75;;;4.70;;
44222;SDS011;29895;48.804;9.386;2023-07-28T06:03:38;10.13;;;4.85;;
44222;SDS011;29895;48.804;9.386;2023-07-28T06:06:04;7.28;;;4.65;;
44222;SDS011;29895;48.804;9.386;2023-07-28T06:08:30;8.88;;;5.00;;
44222;SDS011;29895;48.804;9.386;2023-07-28T06:10:55;8.63;;;5.20;;
44222;SDS011;29895;48.804;9.386;2023-07-28T06:13:21;12.32;;;5.78;;
44222;SDS011;29895;48.804;9.386;2023-07-28T06:15:47;9.15;;;5.97;;
44222;SDS011;29895;48.804;9.386;2023-07-28T06:18:13;10.52;;;6.05;;
44222;SDS011;29895;48.804;9.386;2023-07-28T06:20:42;10.30;;;5.53;;
44222;SDS011;29895;48.804;9.386;2023-07-28T06:23:08;9.55;;;5.82;;
44222;SDS011;29895;48.804;9.386;2023-07-28T06:25:34;9.95;;;5.95;;
44222;SDS011;29895;48.804;9.386;2023-07-28T06:28:00;8.80;;;5.75;;
44222;SDS011;29895;48.804;9.386;2023-07-28T06:30:25;9.15;;;5.82;;
44222;SDS011;29895;48.804;9.386;2023-07-28T06:32:51;13.23;;;5.82;;
44222;SDS011;29895;48.804;9.386;2023-07-28T06:35:17;7.53;;;5.07;;
44222;SDS011;29895;48.804;9.386;2023-07-28T06:37:42;8.20;;;5.65;;
44222;SDS011;29895;48.804;9.386;2023-07-28T06:40:08;9.60;;;5.63;;
44222;SDS011;29895;48.804;9.386;2023-07-28T06:42:34;8.88;;;6.05;;
44222;SDS011;29895;48.804;9.386;2023-07-28T06:45:02;10.73;;;5.82;;
44222;SDS011;29895;48.804;9.386;2023-07-28T06:47:29;9.27;;;5.35;;
44222;SDS011;29895;48.804;9.386;2023-07-28T06:49:55;8.27;;;5.82;;
44222;SDS011;29895;48.804;9.386;2023-07-28T06:52:21;12.30;;;5.70;;
44222;SDS011;29895;48.804;9.386;2023-07-28T06:54:47;9.05;;;6.10;;
44222;SDS011;29895;48.804;9.386;2023-07-28T06:57:14;8.60;;;5.53;;
44222;SDS011;29895;48.804;9.386;2023-07-28T06:59:40;9.80;;;6.10;;
44222;SDS011;29895;48.804;9.386;2023-07-28T07:02:07;7.80;;;5.38;;
44222;SDS011;29895;48.804;9.386;2023-07-28T07:04:33;8.85;;;5.35;;
44222;SDS011;29895;48.804;9.386;2023-07-28T07:06:58;10.20;;;6.10;;
44222;SDS011;29895;48.804;9.386;2023-07-28T07:09:24;6.10;;;5.03;;
44222;SDS011;29895;48.804;9.386;2023-07-28T07:11:50;11.23;;;5.82;;
44222;SDS011;29895;48.804;9.386;2023-07-28T07:14:15;7.97;;;5.75;;
44222;SDS011;29895;48.804;9.386;2023-07-28T07:16:41;7.78;;;5.97;;
44222;SDS011;29895;48.804;9.386;2023-07-28T07:19:07;8.60;;;6.07;;
44222;SDS011;29895;48.804;9.386;2023-07-28T07:21:34;11.68;;;5.30;;
44222;SDS011;29895;48.804;9.386;2023-07-28T07:23:59;8.15;;;5.90;;
44222;SDS011;29895;48.804;9.386;2023-07-28T07:26:27;8.43;;;5.38;;
44222;SDS011;29895;48.804;9.386;2023-07-28T07:28:53;10.55;;;5.78;;
44222;SDS011;29895;48.804;9.386;2023-07-28T07:31:18;8.63;;;4.88;;
44222;SDS011;29895;48.804;9.386;2023-07-28T07:33:44;7.68;;;5.47;;
44222;SDS011;29895;48.804;9.386;2023-07-28T07:36:14;10.20;;;5.78;;
44222;SDS011;29895;48.804;9.386;2023-07-28T07:38:40;7.55;;;5.20;;
44222;SDS011;29895;48.804;9.386;2023-07-28T07:41:06;9.32;;;4.30;;
44222;SDS011;29895;48.804;9.386;2023-07-28T07:43:33;7.82;;;4.85;;
44222;SDS011;29895;48.804;9.386;2023-07-28T07:45:59;7.20;;;4.63;;
44222;SDS011;29895;48.804;9.386;2023-07-28T07:48:25;7.45;;;5.38;;
44222;SDS011;29895;48.804;9.386;2023-07-28T07:50:51;6.63;;;4.50;;
44222;SDS011;29895;48.804;9.386;2023-07-28T07:53:17;5.93;;;4.60;;
44222;SDS011;29895;48.804;9.386;2023-07-28T07:55:42;8.55;;;5.00;;
44222;SDS011;29895;48.804;9.386;2023-07-28T07:58:08;8.95;;;4.85;;
44222;SDS011;29895;48.804;9.386;2023-07-28T08:00:36;9.40;;;4.57;;
44222;SDS011;29895;48.804;9.386;2023-07-28T08:03:03;6.80;;;4.60;;
44222;SDS011;29895;48.804;9.386;2023-07-28T08:05:30;9.65;;;4.35;;
44222;SDS011;29895;48.804;9.386;2023-07-28T08:07:55;7.95;;;4.82;;
44222;SDS011;29895;48.804;9.386;2023-07-28T08:10:21;7.75;;;4.47;;
44222;SDS011;29895;48.804;9.386;2023-07-28T08:12:47;7.43;;;4.50;;
44222;SDS011;29895;48.804;9.386;2023-07-28T08:15:13;6.15;;;4.75;;
44222;SDS011;29895;48.804;9.386;2023-07-28T08:17:39;6.30;;;4.82;;
44222;SDS011;29895;48.804;9.386;2023-07-28T08:20:05;7.63;;;4.50;;
44222;SDS011;29895;48.804;9.386;2023-07-28T08:22:32;7.90;;;4.78;;
44222;SDS011;29895;48.804;9.386;2023-07-28T08:24:57;7.88;;;4.47;;
44222;SDS011;29895;48.804;9.386;2023-07-28T08:27:23;6.13;;;4.20;;
44222;SDS011;29895;48.804;9.386;2023-07-28T08:29:49;7.93;;;5.13;;
44222;SDS011;29895;48.804;9.386;2023-07-28T08:32:14;10.68;;;5.13;;
44222;SDS011;29895;48.804;9.386;2023-07-28T08:34:40;7.90;;;4.93;;
44222;SDS011;29895;48.804;9.386;2023-07-28T08:37:06;8.57;;;5.00;;
44222;SDS011;29895;48.804;9.386;2023-07-28T08:39:33;8.43;;;5.55;;
44222;SDS011;29895;48.804;9.386;2023-07-28T08:41:59;7.57;;;5.18;;
44222;SDS011;29895;48.804;9.386;2023-07-28T08:44:26;10.93;;;5.97;;
44222;SDS011;29895;48.804;9.386;2023-07-28T08:46:56;8.13;;;5.18;;
44222;SDS011;29895;48.804;9.386;2023-07-28T08:49:22;9.63;;;5.72;;
44222;SDS011;29895;48.804;9.386;2023-07-28T08:51:49;11.15;;;6.10;;
44222;SDS011;29895;48.804;9.386;2023-07-28T08:54:15;10.13;;;5.45;;
44222;SDS011;29895;48.804;9.386;2023-07-28T08:56:42;7.85;;;5.43;;
44222;SDS011;29895;48.804;9.386;2023-07-28T08:59:08;8.98;;;5.32;;
44222;SDS011;29895;48.804;9.386;2023-07-28T09:01:40;7.53;;;5.25;;
44222;SDS011;29895;48.804;9.386;2023-07-28T09:04:10;7.40;;;4.95;;
44222;SDS011;29895;48.804;9.386;2023-07-28T09:06:36;8.68;;;5.63;;
44222;SDS011;29895;48.804;9.386;2023-07-28T09:09:01;8.32;;;6.15;;
44222;SDS011;29895;48.804;9.386;2023-07-28T09:11:31;12.25;;;5.95;;
44222;SDS011;29895;48.804;9.386;2023-07-28T09:13:59;10.75;;;6.45;;
44222;SDS011;29895;48.804;9.386;2023-07-28T09:16:25;8.43;;;5.70;;
44222;SDS011;29895;48.804;9.386;2023-07-28T09:18:54;9.70;;;6.00;;
44222;SDS011;29895;48.804;9.386;2023-07-28T09:21:30;8.75;;;5.18;;
44222;SDS011;29895;48.804;9.386;2023-07-28T09:23:59;9.32;;;5.40;;
44222;SDS011;29895;48.804;9.386;2023-07-28T09:26:35;8.57;;;5.40;;
44222;SDS011;29895;48.804;9.386;2023-07-28T09:29:10;8.80;;;5.03;;
44222;SDS011;29895;48.804;9.386;2023-07-28T09:31:40;7.63;;;5.50;;
44222;SDS011;29895;48.804;9.386;2023-07-28T09:34:09;9.43;;;5.10;;
44222;SDS011;29895;48.804;9.386;2023-07-28T09:36:36;7.60;;;5.15;;
44222;SDS011;29895;48.804;9.386;2023-07-28T09:39:05;6.47;;;4.97;;
44222;SDS011;29895;48.804;9.386;2023-07-28T09:41:35;7.60;;;5.05;;
44222;SDS011;29895;48.804;9.386;2023-07-28T09:44:04;7.28;;;4.93;;
44222;SDS011;29895;48.804;9.386;2023-07-28T09:46:33;8.20;;;5.13;;
44222;SDS011;29895;48.804;9.386;2023-07-28T09:49:05;5.78;;;4.43;;
44222;SDS011;29895;48.804;9.386;2023-07-28T09:51:34;9.10;;;5.13;;
44222;SDS011;29895;48.804;9.386;2023-07-28T09:54:06;7.38;;;4.95;;
44222;SDS011;29895;48.804;9.386;2023-07-28T09:56:37;6.43;;;4.90;;
44222;SDS011;29895;48.804;9.386;2023-07-28T09:59:06;8.20;;;4.70;;
44222;SDS011;29895;48.804;9.386;2023-07-28T10:01:36;6.60;;;5.05;;
44222;SDS011;29895;48.804;9.386;2023-07-28T10:04:03;8.30;;;4.97;;
44222;SDS011;29895;48.804;9.386;2023-07-28T10:06:30;7.03;;;4.38;;
44222;SDS011;29895;48.804;9.386;2023-07-28T10:08:57;6.32;;;4.28;;
44222;SDS011;29895;48.804;9.386;2023-07-28T10:11:22;8.88;;;4.15;;
44222;SDS011;29895;48.804;9.386;2023-07-28T10:13:50;8.77;;;4.38;;
44222;SDS011;29895;48.804;9.386;2023-07-28T10:16:19;5.85;;;4.22;;
44222;SDS011;29895;48.804;9.386;2023-07-28T10:18:54;7.75;;;4.93;;
44222;SDS011;29895;48.804;9.386;2023-07-28T10:21:20;7.20;;;4.88;;
44222;SDS011;29895;48.804;9.386;2023-07-28T10:23:48;10.40;;;4.63;;
44222;SDS011;29895;48.804;9.386;2023-07-28T10:26:34;6.85;;;4.05;;
44222;SDS011;29895;48.804;9.386;2023-07-28T10:31:36;8.45;;;3.95;;
44222;SDS011;29895;48.804;9.386;2023-07-28T10:34:02;7.00;;;3.40;;
44222;SDS011;29895;48.804;9.386;2023-07-28T10:39:00;5.97;;;3.22;;
44222;SDS011;29895;48.804;9.386;2023-07-28T10:41:36;5.13;;;3.75;;
44222;SDS011;29895;48.804;9.386;2023-07-28T10:44:03;4.30;;;2.70;;
44222;SDS011;29895;48.804;9.386;2023-07-28T10:46:28;3.63;;;2.88;;
44222;SDS011;29895;48.804;9.386;2023-07-28T10:48:54;5.95;;;2.80;;
44222;SDS011;29895;48.804;9.386;2023-07-28T10:51:24;5.63;;;2.75;;
44222;SDS011;29895;48.804;9.386;2023-07-28T10:53:58;4.78;;;3.05;;
44222;SDS011;29895;48.804;9.386;2023-07-28T10:56:25;3.88;;;2.90;;
44222;SDS011;29895;48.804;9.386;2023-07-28T11:01:44;4.43;;;2.78;;
44222;SDS011;29895;48.804;9.386;2023-07-28T11:04:16;5.07;;;2.90;;
44222;SDS011;29895;48.804;9.386;2023-07-28T11:06:44;7.35;;;2.85;;
44222;SDS011;29895;48.804;9.386;2023-07-28T11:09:13;5.45;;;2.60;;
44222;SDS011;29895;48.804;9.386;2023-07-28T11:11:39;3.47;;;2.72;;
44222;SDS011;29895;48.804;9.386;2023-07-28T11:14:06;6.15;;;3.17;;
44222;SDS011;29895;48.804;9.386;2023-07-28T11:16:33;4.60;;;3.00;;
44222;SDS011;29895;48.804;9.386;2023-07-28T11:19:07;3.67;;;2.83;;
44222;SDS011;29895;48.804;9.386;2023-07-28T11:21:36;4.85;;;3.03;;
44222;SDS011;29895;48.804;9.386;2023-07-28T11:24:03;4.60;;;2.80;;
44222;SDS011;29895;48.804;9.386;2023-07-28T11:26:29;6.80;;;3.80;;
44222;SDS011;29895;48.804;9.386;2023-07-28T11:28:55;4.22;;;2.97;;
44222;SDS011;29895;48.804;9.386;2023-07-28T11:31:24;5.13;;;3.05;;
44222;SDS011;29895;48.804;9.386;2023-07-28T11:33:51;4.78;;;2.75;;
44222;SDS011;29895;48.804;9.386;2023-07-28T11:36:25;4.38;;;2.50;;
44222;SDS011;29895;48.804;9.386;2023-07-28T11:38:52;4.30;;;2.72;;
44222;SDS011;29895;48.804;9.386;2023-07-28T11:41:19;4.85;;;2.58;;
44222;SDS011;29895;48.804;9.386;2023-07-28T11:43:49;3.17;;;2.45;;
44222;SDS011;29895;48.804;9.386;2023-07-28T11:46:32;4.25;;;2.05;;
44222;SDS011;29895;48.804;9.386;2023-07-28T11:49:17;3.10;;;2.22;;
44222;SDS011;29895;48.804;9.386;2023-07-28T11:51:47;4.95;;;2.67;;
44222;SDS011;29895;48.804;9.386;2023-07-28T11:54:16;2.78;;;2.20;;
44222;SDS011;29895;48.804;9.386;2023-07-28T11:56:47;2.97;;;2.22;;
44222;SDS011;29895;48.804;9.386;2023-07-28T11:59:15;2.35;;;1.90;;
44222;SDS011;29895;48.804;9.386;2023-07-28T12:04:37;3.55;;;2.42;;
44222;SDS011;29895;48.804;9.386;2023-07-28T12:07:05;3.75;;;1.92;;
44222;SDS011;29895;48.804;9.386;2023-07-28T12:12:26;3.15;;;2.00;;
44222;SDS011;29895;48.804;9.386;2023-07-28T12:14:54;3.78;;;2.13;;
44222;SDS011;29895;48.804;9.386;2023-07-28T12:17:23;8.25;;;2.83;;
44222;SDS011;29895;48.804;9.386;2023-07-28T12:22:36;3.50;;;2.42;;
44222;SDS011;29895;48.804;9.386;2023-07-28T12:25:02;4.68;;;2.35;;
44222;SDS011;29895;48.804;9.386;2023-07-28T12:27:29;4.22;;;2.58;;
44222;SDS011;29895;48.804;9.386;2023-07-28T12:29:55;5.53;;;3.05;;
44222;SDS011;29895;48.804;9.386;2023-07-28T12:32:21;3.00;;;2.53;;
44222;SDS011;29895;48.804;9.386;2023-07-28T12:34:48;4.63;;;2.40;;
44222;SDS011;29895;48.804;9.386;2023-07-28T12:37:15;5.28;;;2.70;;
44222;SDS011;29895;48.804;9.386;2023-07-28T12:39:41;4.50;;;2.80;;
44222;SDS011;29895;48.804;9.386;2023-07-28T12:42:10;8.75;;;3.42;;
44222;SDS011;29895;48.804;9.386;2023-07-28T12:44:36;11.10;;;3.10;;
44222;SDS011;29895;48.804;9.386;2023-07-28T12:47:02;6.50;;;3.33;;
44222;SDS011;29895;48.804;9.386;2023-07-28T12:49:28;6.03;;;3.40;;
44222;SDS011;29895;48.804;9.386;2023-07-28T12:51:55;8.73;;;3.45;;
44222;SDS011;29895;48.804;9.386;2023-07-28T12:54:22;8.35;;;3.75;;
44222;SDS011;29895;48.804;9.386;2023-07-28T12:56:48;7.00;;;3.28;;
44222;SDS011;29895;48.804;9.386;2023-07-28T12:59:14;5.15;;;2.47;;
44222;SDS011;29895;48.804;9.386;2023-07-28T13:01:40;3.22;;;2.40;;
44222;SDS011;29895;48.804;9.386;2023-07-28T13:04:06;4.68;;;2.47;;
44222;SDS011;29895;48.804;9.386;2023-07-28T13:06:32;6.88;;;2.58;;
44222;SDS011;29895;48.804;9.386;2023-07-28T13:08:58;4.50;;;2.90;;
44222;SDS011;29895;48.804;9.386;2023-07-28T13:11:23;2.58;;;2.25;;
44222;SDS011;29895;48.804;9.386;2023-07-28T13:13:49;4.30;;;2.10;;
44222;SDS011;29895;48.804;9.386;2023-07-28T13:16:15;3.80;;;2.17;;
44222;SDS011;29895;48.804;9.386;2023-07-28T13:18:41;5.22;;;2.60;;
44222;SDS011;29895;48.804;9.386;2023-07-28T13:21:08;3.83;;;2.70;;
44222;SDS011;29895;48.804;9.386;2023-07-28T13:23:35;3.83;;;2.40;;
44222;SDS011;29895;48.804;9.386;2023-07-28T13:26:00;4.70;;;2.38;;
44222;SDS011;29895;48.804;9.386;2023-07-28T13:28:29;4.82;;;2.28;;
44222;SDS011;29895;48.804;9.386;2023-07-28T13:30:55;3.00;;;2.25;;
44222;SDS011;29895;48.804;9.386;2023-07-28T13:33:20;4.45;;;2.40;;
44222;SDS011;29895;48.804;9.386;2023-07-28T13:35:46;5.57;;;2.42;;
44222;SDS011;29895;48.804;9.386;2023-07-28T13:38:12;4.40;;;2.03;;
44222;SDS011;29895;48.804;9.386;2023-07-28T13:40:38;3.38;;;1.95;;
44222;SDS011;29895;48.804;9.386;2023-07-28T13:43:03;3.03;;;1.88;;
44222;SDS011;29895;48.804;9.386;2023-07-28T13:45:29;5.32;;;2.60;;
44222;SDS011;29895;48.804;9.386;2023-07-28T13:47:55;2.90;;;2.35;;
44222;SDS011;29895;48.804;9.386;2023-07-28T13:50:20;5.32;;;2.25;;
44222;SDS011;29895;48.804;9.386;2023-07-28T13:52:46;3.35;;;2.47;;
44222;SDS011;29895;48.804;9.386;2023-07-28T13:55:12;5.93;;;3.00;;
44222;SDS011;29895;48.804;9.386;2023-07-28T13:57:38;3.88;;;2.75;;
44222;SDS011;29895;48.804;9.386;2023-07-28T14:00:04;5.25;;;2.75;;
44222;SDS011;29895;48.804;9.386;2023-07-28T14:02:34;6.80;;;3.28;;
44222;SDS011;29895;48.804;9.386;2023-07-28T14:05:03;7.93;;;3.50;;
44222;SDS011;29895;48.804;9.386;2023-07-28T14:07:32;7.47;;;3.60;;
44222;SDS011;29895;48.804;9.386;2023-07-28T14:10:02;9.27;;;4.68;;
44222;SDS011;29895;48.804;9.386;2023-07-28T14:12:28;10.38;;;4.63;;
44222;SDS011;29895;48.804;9.386;2023-07-28T14:14:53;7.60;;;4.70;;
44222;SDS011;29895;48.804;9.386;2023-07-28T14:17:19;8.90;;;5.18;;
44222;SDS011;29895;48.804;9.386;2023-07-28T14:19:45;11.80;;;5.22;;
44222;SDS011;29895;48.804;9.386;2023-07-28T14:22:10;7.53;;;5.05;;
44222;SDS011;29895;48.804;9.386;2023-07-28T14:24:37;10.57;;;4.72;;
44222;SDS011;29895;48.804;9.386;2023-07-28T14:27:03;10.15;;;5.03;;
44222;SDS011;29895;48.804;9.386;2023-07-28T14:29:29;8.70;;;5.32;;
44222;SDS011;29895;48.804;9.386;2023-07-28T14:31:55;8.73;;;5.88;;
44222;SDS011;29895;48.804;9.386;2023-07-28T14:34:20;8.98;;;5.80;;
44222;SDS011;29895;48.804;9.386;2023-07-28T14:36:46;9.85;;;5.22;;
44222;SDS011;29895;48.804;9.386;2023-07-28T14:39:11;8.30;;;4.90;;
44222;SDS011;29895;48.804;9.386;2023-07-28T14:41:37;9.85;;;5.70;;
44222;SDS011;29895;48.804;9.386;2023-07-28T14:44:03;11.25;;;6.47;;
44222;SDS011;29895;48.804;9.386;2023-07-28T14:46:28;10.40;;;6.00;;
44222;SDS011;29895;48.804;9.386;2023-07-28T14:48:54;10.65;;;5.82;;
44222;SDS011;29895;48.804;9.386;2023-07-28T14:51:20;7.97;;;5.13;;
44222;SDS011;29895;48.804;9.386;2023-07-28T14:53:46;9.55;;;5.00;;
44222;SDS011;29895;48.804;9.386;2023-07-28T14:56:13;11.23;;;6.28;;
44222;SDS011;29895;48.804;9.386;2023-07-28T14:58:40;13.70;;;6.68;;
44222;SDS011;29895;48.804;9.386;2023-07-28T15:01:06;9.70;;;5.97;;
44222;SDS011;29895;48.804;9.386;2023-07-28T15:03:32;8.57;;;5.07;;